sensor_id;sensor_type;location;lat;lon;timestamp;pressure;altitude;pressure_sealevel;temperature;humidity
71043;BME280;58696;52.134;5.500;2023-12-20T00:01:25;101525.97;;;5.50;100.00
71043;BME280;58696;52.134;5.500;2023-12-20T00:03:51;101526.50;;;5.44;100.00
71043;BME280;58696;52.134;5.500;2023-12-20T00:06:18;101525.00;;;5.41;100.00
71043;BME280;58696;52.134;5.500;2023-12-20T00:08:45;101524.88;;;5.43;100.00
71043;BME280;58696;52.134;5.500;2023-12-20T00:11:12;101515.75;;;5.40;100.00
71043;BME280;58696;52.134;5.500;2023-12-20T00:13:39;101516.81;;;5.38;100.00
71043;BME280;58696;52.134;5.500;2023-12-20T00:16:05;101508.63;;;5.34;100.00
71043;BME280;58696;52.134;5.500;2023-12-20T00:18:32;101514.13;;;5.30;100.00
71043;BME280;58696;52.134;5.500;2023-12-20T00:20:59;101510.09;;;5.27;100.00
71043;BME280;58696;52.134;5.500;2023-12-20T00:23:28;101503.53;;;5.24;100.00
71043;BME280;58696;52.134;5.500;2023-12-20T00:25:57;101499.50;;;5.22;100.00
71043;BME280;58696;52.134;5.500;2023-12-20T00:28:25;101492.91;;;5.19;100.00
71043;BME280;58696;52.134;5.500;2023-12-20T00:30:52;101496.53;;;5.17;100.00
71043;BME280;58696;52.134;5.500;2023-12-20T00:33:19;101504.19;;;5.17;100.00
71043;BME280;58696;52.134;5.500;2023-12-20T00:35:46;101501.06;;;5.13;100.00
71043;BME280;58696;52.134;5.500;2023-12-20T00:38:13;101508.06;;;5.11;100.00
71043;BME280;58696;52.134;5.500;2023-12-20T00:40:41;101511.78;;;5.07;100.00
71043;BME280;58696;52.134;5.500;2023-12-20T00:43:08;101506.28;;;5.02;100.00
71043;BME280;58696;52.134;5.500;2023-12-20T00:45:35;101511.50;;;5.00;100.00
71043;BME280;58696;52.134;5.500;2023-12-20T00:48:04;101509.75;;;5.01;100.00
71043;BME280;58696;52.134;5.500;2023-12-20T00:50:33;101519.25;;;4.99;100.00
71043;BME280;58696;52.134;5.500;2023-12-20T00:53:00;101517.50;;;4.99;100.00
71043;BME280;58696;52.134;5.500;2023-12-20T00:55:27;101504.25;;;4.96;100.00
71043;BME280;58696;52.134;5.500;2023-12-20T00:57:53;101507.97;;;4.92;100.00
71043;BME280;58696;52.134;5.500;2023-12-20T01:00:22;101506.75;;;4.86;100.00
71043;BME280;58696;52.134;5.500;2023-12-20T01:02:54;101507.69;;;4.85;100.00
71043;BME280;58696;52.134;5.500;2023-12-20T01:05:23;101506.88;;;4.85;100.00
71043;BME280;58696;52.134;5.500;2023-12-20T01:07:50;101503.09;;;4.79;100.00
71043;BME280;58696;52.134;5.500;2023-12-20T01:10:16;101496.09;;;4.71;100.00
71043;BME280;58696;52.134;5.500;2023-12-20T01:12:43;101499.72;;;4.69;100.00
71043;BME280;58696;52.134;5.500;2023-12-20T01:15:10;101492.16;;;4.67;100.00
71043;BME280;58696;52.134;5.500;2023-12-20T01:17:37;101492.59;;;4.63;100.00
71043;BME280;58696;52.134;5.500;2023-12-20T01:20:04;101501.13;;;4.62;100.00
71043;BME280;58696;52.134;5.500;2023-12-20T01:22:31;101499.66;;;4.59;100.00
71043;BME280;58696;52.134;5.500;2023-12-20T01:25:00;101497.91;;;4.60;100.00
71043;BME280;58696;52.134;5.500;2023-12-20T01:27:30;101510.78;;;4.58;100.00
71043;BME280;58696;52.134;5.500;2023-12-20T01:29:57;101518.53;;;4.57;100.00
71043;BME280;58696;52.134;5.500;2023-12-20T01:32:26;101522.25;;;4.53;100.00
71043;BME280;58696;52.134;5.500;2023-12-20T01:34:52;101518.22;;;4.50;100.00
71043;BME280;58696;52.134;5.500;2023-12-20T01:37:27;101510.91;;;4.57;100.00
71043;BME280;58696;52.134;5.500;2023-12-20T01:39:56;101509.69;;;4.61;100.00
71043;BME280;58696;52.134;5.500;2023-12-20T01:42:23;101510.50;;;4.61;100.00
71043;BME280;58696;52.134;5.500;2023-12-20T01:44:51;101505.97;;;4.65;100.00
71043;BME280;58696;52.134;5.500;2023-12-20T01:47:23;101503.06;;;4.69;100.00
71043;BME280;58696;52.134;5.500;2023-12-20T01:49:52;101502.78;;;4.72;100.00
71043;BME280;58696;52.134;5.500;2023-12-20T01:52:19;101494.25;;;4.73;100.00
71043;BME280;58696;52.134;5.500;2023-12-20T01:54:49;101502.78;;;4.72;100.00
71043;BME280;58696;52.134;5.500;2023-12-20T01:57:21;101505.34;;;4.72;100.00
71043;BME280;58696;52.134;5.500;2023-12-20T01:59:47;101503.19;;;4.68;100.00
71043;BME280;58696;52.134;5.500;2023-12-20T02:02:16;101509.09;;;4.68;100.00
71043;BME280;58696;52.134;5.500;2023-12-20T02:04:43;101495.41;;;4.69;100.00
71043;BME280;58696;52.134;5.500;2023-12-20T02:07:11;101505.59;;;4.69;100.00
71043;BME280;58696;52.134;5.500;2023-12-20T02:09:38;101508.94;;;4.70;100.00
71043;BME280;58696;52.134;5.500;2023-12-20T02:12:06;101497.41;;;4.66;100.00
71043;BME280;58696;52.134;5.500;2023-12-20T02:14:35;101496.59;;;4.65;100.00
71043;BME280;58696;52.134;5.500;2023-12-20T02:17:05;101499.56;;;4.70;100.00
71043;BME280;58696;52.134;5.500;2023-12-20T02:19:32;101493.84;;;4.78;100.00
71043;BME280;58696;52.134;5.500;2023-12-20T02:22:11;101495.06;;;4.84;100.00
71043;BME280;58696;52.134;5.500;2023-12-20T02:24:38;101490.38;;;4.89;100.00
71043;BME280;58696;52.134;5.500;2023-12-20T02:27:08;101495.91;;;4.94;100.00
71043;BME280;58696;52.134;5.500;2023-12-20T02:29:35;101497.28;;;4.98;100.00
71043;BME280;58696;52.134;5.500;2023-12-20T02:32:02;101489.09;;;5.04;100.00
71043;BME280;58696;52.134;5.500;2023-12-20T02:34:29;101483.06;;;5.05;100.00
71043;BME280;58696;52.134;5.500;2023-12-20T02:36:58;101482.28;;;5.05;100.00
71043;BME280;58696;52.134;5.500;2023-12-20T02:39:24;101480.81;;;5.02;100.00
71043;BME280;58696;52.134;5.500;2023-12-20T02:41:51;101478.25;;;5.02;100.00
71043;BME280;58696;52.134;5.500;2023-12-20T02:44:18;101464.72;;;5.01;100.00
71043;BME280;58696;52.134;5.500;2023-12-20T02:46:47;101473.81;;;5.04;100.00
71043;BME280;58696;52.134;5.500;2023-12-20T02:49:13;101466.06;;;5.06;100.00
71043;BME280;58696;52.134;5.500;2023-12-20T02:51:40;101465.25;;;5.05;100.00
71043;BME280;58696;52.134;5.500;2023-12-20T02:54:07;101465.13;;;5.07;100.00
71043;BME280;58696;52.134;5.500;2023-12-20T02:56:36;101476.94;;;5.08;100.00
71043;BME280;58696;52.134;5.500;2023-12-20T02:59:06;101472.63;;;5.08;100.00
71043;BME280;58696;52.134;5.500;2023-12-20T03:01:35;101465.53;;;5.12;100.00
71043;BME280;58696;52.134;5.500;2023-12-20T03:04:03;101453.47;;;5.14;100.00
71043;BME280;58696;52.134;5.500;2023-12-20T03:06:32;101447.03;;;5.10;100.00
71043;BME280;58696;52.134;5.500;2023-12-20T03:09:04;101454.13;;;5.06;100.00
71043;BME280;58696;52.134;5.500;2023-12-20T03:11:33;101454.00;;;5.08;100.00
71043;BME280;58696;52.134;5.500;2023-12-20T03:14:00;101437.38;;;5.13;100.00
71043;BME280;58696;52.134;5.500;2023-12-20T03:16:27;101438.59;;;5.19;100.00
71043;BME280;58696;52.134;5.500;2023-12-20T03:18:53;101436.06;;;5.19;100.00
71043;BME280;58696;52.134;5.500;2023-12-20T03:21:25;101444.63;;;5.18;100.00
71043;BME280;58696;52.134;5.500;2023-12-20T03:23:56;101428.97;;;5.22;100.00
71043;BME280;58696;52.134;5.500;2023-12-20T03:26:23;101429.88;;;5.31;100.00
71043;BME280;58696;52.134;5.500;2023-12-20T03:28:49;101425.59;;;5.32;100.00
71043;BME280;58696;52.134;5.500;2023-12-20T03:31:16;101426.69;;;5.29;100.00
71043;BME280;58696;52.134;5.500;2023-12-20T03:33:43;101433.13;;;5.23;100.00
71043;BME280;58696;52.134;5.500;2023-12-20T03:36:09;101433.91;;;5.24;100.00
71043;BME280;58696;52.134;5.500;2023-12-20T03:38:36;101429.75;;;5.23;100.00
71043;BME280;58696;52.134;5.500;2023-12-20T03:41:04;101432.56;;;5.20;100.00
71043;BME280;58696;52.134;5.500;2023-12-20T03:43:30;101431.50;;;5.22;100.00
71043;BME280;58696;52.134;5.500;2023-12-20T03:45:57;101435.53;;;5.25;100.00
71043;BME280;58696;52.134;5.500;2023-12-20T03:48:26;101434.31;;;5.29;100.00
71043;BME280;58696;52.134;5.500;2023-12-20T03:50:56;101435.78;;;5.32;100.00
71043;BME280;58696;52.134;5.500;2023-12-20T03:53:25;101431.91;;;5.37;100.00
71043;BME280;58696;52.134;5.500;2023-12-20T03:55:52;101432.44;;;5.41;100.00
71043;BME280;58696;52.134;5.500;2023-12-20T03:58:19;101437.28;;;5.44;100.00
71043;BME280;58696;52.134;5.500;2023-12-20T04:00:52;101438.75;;;5.46;100.00
71043;BME280;58696;52.134;5.500;2023-12-20T04:03:18;101433.53;;;5.48;100.00
71043;BME280;58696;52.134;5.500;2023-12-20T04:05:46;101445.47;;;5.47;100.00
71043;BME280;58696;52.134;5.500;2023-12-20T04:08:13;101444.94;;;5.53;100.00
71043;BME280;58696;52.134;5.500;2023-12-20T04:10:39;101437.03;;;5.57;100.00
71043;BME280;58696;52.134;5.500;2023-12-20T04:13:06;101446.69;;;5.63;100.00
71043;BME280;58696;52.134;5.500;2023-12-20T04:15:32;101441.97;;;5.68;100.00
71043;BME280;58696;52.134;5.500;2023-12-20T04:18:02;101444.28;;;5.71;100.00
71043;BME280;58696;52.134;5.500;2023-12-20T04:20:28;101427.09;;;5.73;100.00
71043;BME280;58696;52.134;5.500;2023-12-20T04:23:00;101429.50;;;5.74;100.00
71043;BME280;58696;52.134;5.500;2023-12-20T04:25:29;101423.72;;;5.72;100.00
71043;BME280;58696;52.134;5.500;2023-12-20T04:27:55;101420.22;;;5.73;100.00
71043;BME280;58696;52.134;5.500;2023-12-20T04:30:22;101429.50;;;5.74;100.00
71043;BME280;58696;52.134;5.500;2023-12-20T04:32:51;101441.84;;;5.79;100.00
71043;BME280;58696;52.134;5.500;2023-12-20T04:35:21;101433.38;;;5.88;100.00
71043;BME280;58696;52.134;5.500;2023-12-20T04:37:52;101436.22;;;5.95;100.00
71043;BME280;58696;52.134;5.500;2023-12-20T04:40:21;101433.25;;;5.99;100.00
71043;BME280;58696;52.134;5.500;2023-12-20T04:42:48;101442.38;;;6.02;100.00
71043;BME280;58696;52.134;5.500;2023-12-20T04:45:14;101426.00;;;6.04;100.00
71043;BME280;58696;52.134;5.500;2023-12-20T04:47:47;101419.00;;;6.06;100.00
71043;BME280;58696;52.134;5.500;2023-12-20T04:50:18;101431.75;;;6.06;100.00
71043;BME280;58696;52.134;5.500;2023-12-20T04:52:46;101427.47;;;6.07;100.00
71043;BME280;58696;52.134;5.500;2023-12-20T04:55:13;101429.47;;;6.13;100.00
71043;BME280;58696;52.134;5.500;2023-12-20T04:57:42;101424.88;;;6.17;100.00
71043;BME280;58696;52.134;5.500;2023-12-20T05:00:10;101423.00;;;6.19;100.00
71043;BME280;58696;52.134;5.500;2023-12-20T05:02:41;101415.06;;;6.22;100.00
71043;BME280;58696;52.134;5.500;2023-12-20T05:05:08;101418.97;;;6.26;100.00
71043;BME280;58696;52.134;5.500;2023-12-20T05:07:35;101414.50;;;6.28;100.00
71043;BME280;58696;52.134;5.500;2023-12-20T05:10:02;101414.38;;;6.29;100.00
71043;BME280;58696;52.134;5.500;2023-12-20T05:12:31;101416.91;;;6.29;100.00
71043;BME280;58696;52.134;5.500;2023-12-20T05:14:59;101408.84;;;6.34;100.00
71043;BME280;58696;52.134;5.500;2023-12-20T05:17:28;101406.03;;;6.37;100.00
71043;BME280;58696;52.134;5.500;2023-12-20T05:19:55;101413.53;;;6.39;100.00
71043;BME280;58696;52.134;5.500;2023-12-20T05:22:24;101412.31;;;6.43;100.00
71043;BME280;58696;52.134;5.500;2023-12-20T05:24:51;101419.03;;;6.44;100.00
71043;BME280;58696;52.134;5.500;2023-12-20T05:27:18;101417.28;;;6.44;100.00
71043;BME280;58696;52.134;5.500;2023-12-20T05:29:45;101419.69;;;6.46;100.00
71043;BME280;58696;52.134;5.500;2023-12-20T05:32:19;101418.72;;;6.47;100.00
71043;BME280;58696;52.134;5.500;2023-12-20T05:34:45;101417.66;;;6.49;100.00
71043;BME280;58696;52.134;5.500;2023-12-20T05:37:12;101410.94;;;6.48;100.00
71043;BME280;58696;52.134;5.500;2023-12-20T05:39:41;101413.50;;;6.48;100.00
71043;BME280;58696;52.134;5.500;2023-12-20T05:42:08;101417.00;;;6.47;100.00
71043;BME280;58696;52.134;5.500;2023-12-20T05:44:35;101413.50;;;6.48;100.00
71043;BME280;58696;52.134;5.500;2023-12-20T05:47:02;101415.91;;;6.50;100.00
71043;BME280;58696;52.134;5.500;2023-12-20T05:49:36;101410.00;;;6.49;100.00
71043;BME280;58696;52.134;5.500;2023-12-20T05:52:03;101412.56;;;6.49;100.00
71043;BME280;58696;52.134;5.500;2023-12-20T05:54:30;101417.41;;;6.52;100.00
71043;BME280;58696;52.134;5.500;2023-12-20T05:57:01;101418.03;;;6.54;100.00
71043;BME280;58696;52.134;5.500;2023-12-20T05:59:30;101424.09;;;6.53;100.00
71043;BME280;58696;52.134;5.500;2023-12-20T06:01:59;101428.25;;;6.54;100.00
71043;BME280;58696;52.134;5.500;2023-12-20T06:04:28;101427.31;;;6.55;100.00
71043;BME280;58696;52.134;5.500;2023-12-20T06:06:55;101424.50;;;6.58;100.00
71043;BME280;58696;52.134;5.500;2023-12-20T06:09:26;101425.28;;;6.59;100.00
71043;BME280;58696;52.134;5.500;2023-12-20T06:11:57;101412.22;;;6.62;100.00
71043;BME280;58696;52.134;5.500;2023-12-20T06:14:26;101424.03;;;6.63;100.00
71043;BME280;58696;52.134;5.500;2023-12-20T06:16:52;101411.41;;;6.62;100.00
71043;BME280;58696;52.134;5.500;2023-12-20T06:19:19;101404.28;;;6.65;100.00
71043;BME280;58696;52.134;5.500;2023-12-20T06:21:48;101404.28;;;6.65;100.00
71043;BME280;58696;52.134;5.500;2023-12-20T06:24:20;101399.19;;;6.65;100.00
71043;BME280;58696;52.134;5.500;2023-12-20T06:26:48;101405.88;;;6.66;100.00
71043;BME280;58696;52.134;5.500;2023-12-20T06:29:15;101411.53;;;6.70;100.00
71043;BME280;58696;52.134;5.500;2023-12-20T06:31:44;101406.28;;;6.71;100.00
71043;BME280;58696;52.134;5.500;2023-12-20T06:34:13;101403.56;;;6.73;100.00
71043;BME280;58696;52.134;5.500;2023-12-20T06:36:42;101401.00;;;6.73;100.00
71043;BME280;58696;52.134;5.500;2023-12-20T06:39:12;101402.75;;;6.72;100.00
71043;BME280;58696;52.134;5.500;2023-12-20T06:41:39;101399.13;;;6.75;100.00
71043;BME280;58696;52.134;5.500;2023-12-20T06:44:06;101402.63;;;6.74;100.00
71043;BME280;58696;52.134;5.500;2023-12-20T06:46:38;101397.38;;;6.75;100.00
71043;BME280;58696;52.134;5.500;2023-12-20T06:49:06;101390.38;;;6.77;100.00
71043;BME280;58696;52.134;5.500;2023-12-20T06:51:33;101392.66;;;6.80;100.00
71043;BME280;58696;52.134;5.500;2023-12-20T06:54:02;101386.75;;;6.80;100.00
71043;BME280;58696;52.134;5.500;2023-12-20T06:56:29;101384.03;;;6.81;100.00
71043;BME280;58696;52.134;5.500;2023-12-20T06:58:58;101394.91;;;6.83;100.00
71043;BME280;58696;52.134;5.500;2023-12-20T07:01:25;101392.22;;;6.85;100.00
71043;BME280;58696;52.134;5.500;2023-12-20T07:03:52;101393.81;;;6.86;100.00
71043;BME280;58696;52.134;5.500;2023-12-20T07:06:19;101392.88;;;6.87;100.00
71043;BME280;58696;52.134;5.500;2023-12-20T07:08:48;101387.13;;;6.85;100.00
71043;BME280;58696;52.134;5.500;2023-12-20T07:11:17;101390.47;;;6.85;100.00
71043;BME280;58696;52.134;5.500;2023-12-20T07:13:44;101396.22;;;6.88;100.00
71043;BME280;58696;52.134;5.500;2023-12-20T07:16:10;101389.22;;;6.90;100.00
71043;BME280;58696;52.134;5.500;2023-12-20T07:18:37;101391.34;;;6.94;100.00
71043;BME280;58696;52.134;5.500;2023-12-20T07:21:04;101392.03;;;6.96;100.00
71043;BME280;58696;52.134;5.500;2023-12-20T07:23:33;101387.72;;;6.97;100.00
71043;BME280;58696;52.134;5.500;2023-12-20T07:26:02;101385.97;;;6.97;100.00
71043;BME280;58696;52.134;5.500;2023-12-20T07:28:32;101385.00;;;6.98;100.00
71043;BME280;58696;52.134;5.500;2023-12-20T07:31:00;101382.16;;;7.01;100.00
71043;BME280;58696;52.134;5.500;2023-12-20T07:33:27;101379.75;;;7.00;100.00
71043;BME280;58696;52.134;5.500;2023-12-20T07:35:56;101385.66;;;7.00;100.00
71043;BME280;58696;52.134;5.500;2023-12-20T07:38:23;101382.00;;;7.03;100.00
71043;BME280;58696;52.134;5.500;2023-12-20T07:40:53;101363.31;;;7.02;100.00
71043;BME280;58696;52.134;5.500;2023-12-20T07:43:22;101376.91;;;7.03;100.00
71043;BME280;58696;52.134;5.500;2023-12-20T07:45:53;101375.94;;;7.04;100.00
71043;BME280;58696;52.134;5.500;2023-12-20T07:48:27;101379.97;;;7.06;100.00
71043;BME280;58696;52.134;5.500;2023-12-20T07:50:59;101387.50;;;7.08;100.00
71043;BME280;58696;52.134;5.500;2023-12-20T07:53:25;101384.00;;;7.09;100.00
71043;BME280;58696;52.134;5.500;2023-12-20T07:55:52;101399.31;;;7.09;100.00
71043;BME280;58696;52.134;5.500;2023-12-20T07:58:21;101401.72;;;7.10;100.00
71043;BME280;58696;52.134;5.500;2023-12-20T08:01:01;101404.97;;;7.13;100.00
71043;BME280;58696;52.134;5.500;2023-12-20T08:03:28;101415.03;;;7.14;100.00
71043;BME280;58696;52.134;5.500;2023-12-20T08:05:54;101405.44;;;7.16;100.00
71043;BME280;58696;52.134;5.500;2023-12-20T08:08:21;101410.44;;;7.18;100.00
71043;BME280;58696;52.134;5.500;2023-12-20T08:10:50;101419.41;;;7.22;100.00
71043;BME280;58696;52.134;5.500;2023-12-20T08:13:17;101414.16;;;7.23;100.00
71043;BME280;58696;52.134;5.500;2023-12-20T08:15:46;101409.19;;;7.22;100.00
71043;BME280;58696;52.134;5.500;2023-12-20T08:18:13;101414.97;;;7.24;100.00
71043;BME280;58696;52.134;5.500;2023-12-20T08:20:42;101403.78;;;7.25;100.00
71043;BME280;58696;52.134;5.500;2023-12-20T08:23:09;101408.91;;;7.25;100.00
71043;BME280;58696;52.134;5.500;2023-12-20T08:25:39;101406.34;;;7.25;100.00
71043;BME280;58696;52.134;5.500;2023-12-20T08:28:05;101402.84;;;7.26;100.00
71043;BME280;58696;52.134;5.500;2023-12-20T08:30:32;101397.56;;;7.27;100.00
71043;BME280;58696;52.134;5.500;2023-12-20T08:33:02;101392.44;;;7.27;100.00
71043;BME280;58696;52.134;5.500;2023-12-20T08:35:29;101393.41;;;7.26;100.00
71043;BME280;58696;52.134;5.500;2023-12-20T08:37:56;101390.69;;;7.28;100.00
71043;BME280;58696;52.134;5.500;2023-12-20T08:40:25;101396.19;;;7.33;100.00
71043;BME280;58696;52.134;5.500;2023-12-20T08:42:55;101401.97;;;7.35;100.00
71043;BME280;58696;52.134;5.500;2023-12-20T08:45:21;101402.59;;;7.37;100.00
71043;BME280;58696;52.134;5.500;2023-12-20T08:47:48;101397.34;;;7.38;100.00
71043;BME280;58696;52.134;5.500;2023-12-20T08:50:16;101389.53;;;7.40;100.00
71043;BME280;58696;52.134;5.500;2023-12-20T08:52:44;101389.53;;;7.40;100.00
71043;BME280;58696;52.134;5.500;2023-12-20T08:55:12;101388.75;;;7.40;100.00
71043;BME280;58696;52.134;5.500;2023-12-20T08:57:40;101392.22;;;7.38;100.00
71043;BME280;58696;52.134;5.500;2023-12-20T09:00:10;101398.13;;;7.39;100.00
71043;BME280;58696;52.134;5.500;2023-12-20T09:02:36;101395.75;;;7.37;100.00
71043;BME280;58696;52.134;5.500;2023-12-20T09:05:04;101396.84;;;7.35;100.00
71043;BME280;58696;52.134;5.500;2023-12-20T09:07:31;101392.16;;;7.30;100.00
71043;BME280;58696;52.134;5.500;2023-12-20T09:09:58;101391.66;;;7.27;100.00
71043;BME280;58696;52.134;5.500;2023-12-20T09:12:25;101385.91;;;7.25;100.00
71043;BME280;58696;52.134;5.500;2023-12-20T09:14:55;101385.22;;;7.23;100.00
71043;BME280;58696;52.134;5.500;2023-12-20T09:17:21;101387.94;;;7.21;100.00
71043;BME280;58696;52.134;5.500;2023-12-20T09:19:51;101389.69;;;7.21;100.00
71043;BME280;58696;52.134;5.500;2023-12-20T09:22:20;101387.94;;;7.21;100.00
71043;BME280;58696;52.134;5.500;2023-12-20T09:24:52;101387.78;;;7.23;100.00
71043;BME280;58696;52.134;5.500;2023-12-20T09:27:21;101386.97;;;7.22;100.00
71043;BME280;58696;52.134;5.500;2023-12-20T09:29:52;101395.59;;;7.21;100.00
71043;BME280;58696;52.134;5.500;2023-12-20T09:32:20;101391.28;;;7.22;100.00
71043;BME280;58696;52.134;5.500;2023-12-20T09:34:47;101397.72;;;7.26;100.00
71043;BME280;58696;52.134;5.500;2023-12-20T09:37:16;101389.78;;;7.29;100.00
71043;BME280;58696;52.134;5.500;2023-12-20T09:39:43;101390.13;;;7.34;100.00
71043;BME280;58696;52.134;5.500;2023-12-20T09:42:12;101385.22;;;7.41;100.00
71043;BME280;58696;52.134;5.500;2023-12-20T09:44:50;101377.56;;;7.41;100.00
71043;BME280;58696;52.134;5.500;2023-12-20T09:47:19;101392.47;;;7.45;100.00
71043;BME280;58696;52.134;5.500;2023-12-20T09:49:50;101396.19;;;7.51;100.00
71043;BME280;58696;52.134;5.500;2023-12-20T09:52:18;101391.44;;;7.56;100.00
71043;BME280;58696;52.134;5.500;2023-12-20T09:54:49;101390.16;;;7.60;100.00
71043;BME280;58696;52.134;5.500;2023-12-20T09:57:19;101381.53;;;7.61;100.00
71043;BME280;58696;52.134;5.500;2023-12-20T09:59:45;101383.44;;;7.59;100.00
71043;BME280;58696;52.134;5.500;2023-12-20T10:02:14;101388.41;;;7.60;100.00
71043;BME280;58696;52.134;5.500;2023-12-20T10:04:47;101391.31;;;7.65;100.00
71043;BME280;58696;52.134;5.500;2023-12-20T10:07:15;101413.47;;;7.75;100.00
71043;BME280;58696;52.134;5.500;2023-12-20T10:09:42;101407.59;;;7.82;100.00
71043;BME280;58696;52.134;5.500;2023-12-20T10:12:10;101415.50;;;7.89;100.00
71043;BME280;58696;52.134;5.500;2023-12-20T10:14:39;101400.78;;;7.91;100.00
71043;BME280;58696;52.134;5.500;2023-12-20T10:17:09;101407.34;;;7.94;100.00
71043;BME280;58696;52.134;5.500;2023-12-20T10:19:38;101416.50;;;7.96;100.00
71043;BME280;58696;52.134;5.500;2023-12-20T10:22:08;101418.88;;;7.98;100.00
71043;BME280;58696;52.134;5.500;2023-12-20T10:24:35;101407.22;;;7.95;100.00
71043;BME280;58696;52.134;5.500;2023-12-20T10:27:03;101408.81;;;7.96;100.00
71043;BME280;58696;52.134;5.500;2023-12-20T10:29:34;101390.75;;;7.98;100.00
71043;BME280;58696;52.134;5.500;2023-12-20T10:32:28;101394.59;;;8.02;100.00
71043;BME280;58696;52.134;5.500;2023-12-20T10:34:55;101402.94;;;8.04;100.00
71043;BME280;58696;52.134;5.500;2023-12-20T10:37:23;101398.31;;;8.07;100.00
71043;BME280;58696;52.134;5.500;2023-12-20T10:39:51;101399.63;;;8.11;100.00
71043;BME280;58696;52.134;5.500;2023-12-20T10:42:21;101399.47;;;8.13;100.00
71043;BME280;58696;52.134;5.500;2023-12-20T10:44:50;101392.59;;;8.13;100.00
71043;BME280;58696;52.134;5.500;2023-12-20T10:47:19;101390.81;;;8.14;100.00
71043;BME280;58696;52.134;5.500;2023-12-20T10:49:52;101382.25;;;8.23;100.00
71043;BME280;58696;52.134;5.500;2023-12-20T10:52:23;101392.22;;;8.34;100.00
71043;BME280;58696;52.134;5.500;2023-12-20T10:54:51;101388.31;;;8.48;100.00
71043;BME280;58696;52.134;5.500;2023-12-20T10:57:18;101384.63;;;8.51;100.00
71043;BME280;58696;52.134;5.500;2023-12-20T10:59:48;101382.09;;;8.59;100.00
71043;BME280;58696;52.134;5.500;2023-12-20T11:02:16;101383.56;;;8.69;100.00
71043;BME280;58696;52.134;5.500;2023-12-20T11:07:35;101385.53;;;8.76;100.00
71043;BME280;58696;52.134;5.500;2023-12-20T11:12:52;101365.03;;;8.76;100.00
71043;BME280;58696;52.134;5.500;2023-12-20T11:15:20;101370.09;;;8.67;100.00
71043;BME280;58696;52.134;5.500;2023-12-20T11:17:54;101368.19;;;8.69;100.00
71043;BME280;58696;52.134;5.500;2023-12-20T11:20:36;101366.44;;;8.78;100.00
71043;BME280;58696;52.134;5.500;2023-12-20T11:23:04;101368.56;;;8.91;100.00
71043;BME280;58696;52.134;5.500;2023-12-20T11:25:46;101357.81;;;8.95;100.00
71043;BME280;58696;52.134;5.500;2023-12-20T11:28:15;101345.47;;;8.83;100.00
71043;BME280;58696;52.134;5.500;2023-12-20T11:30:50;101341.63;;;8.71;100.00
71043;BME280;58696;52.134;5.500;2023-12-20T11:33:25;101342.25;;;8.64;100.00
71043;BME280;58696;52.134;5.500;2023-12-20T11:35:56;101340.16;;;8.68;100.00
71043;BME280;58696;52.134;5.500;2023-12-20T11:38:23;101336.34;;;8.72;100.00
71043;BME280;58696;52.134;5.500;2023-12-20T11:40:54;101338.09;;;8.80;100.00
71043;BME280;58696;52.134;5.500;2023-12-20T11:43:37;101327.41;;;8.92;100.00
71043;BME280;58696;52.134;5.500;2023-12-20T11:46:05;101333.19;;;9.03;100.00
71043;BME280;58696;52.134;5.500;2023-12-20T11:48:37;101327.88;;;9.04;100.00
71043;BME280;58696;52.134;5.500;2023-12-20T11:51:14;101322.75;;;9.04;100.00
71043;BME280;58696;52.134;5.500;2023-12-20T11:53:41;101312.97;;;9.00;100.00
71043;BME280;58696;52.134;5.500;2023-12-20T11:56:10;101324.84;;;8.92;100.00
71043;BME280;58696;52.134;5.500;2023-12-20T11:58:37;101327.88;;;8.88;100.00
71043;BME280;58696;52.134;5.500;2023-12-20T12:01:04;101314.25;;;8.87;100.00
71043;BME280;58696;52.134;5.500;2023-12-20T12:03:35;101320.34;;;8.86;100.00
71043;BME280;58696;52.134;5.500;2023-12-20T12:06:08;101322.56;;;8.89;100.00
71043;BME280;58696;52.134;5.500;2023-12-20T12:08:35;101322.41;;;8.91;100.00
71043;BME280;58696;52.134;5.500;2023-12-20T12:11:03;101323.72;;;8.87;100.00
71043;BME280;58696;52.134;5.500;2023-12-20T12:13:30;101319.53;;;8.86;100.00
71043;BME280;58696;52.134;5.500;2023-12-20T12:15:58;101332.66;;;8.83;100.00
71043;BME280;58696;52.134;5.500;2023-12-20T12:18:25;101324.34;;;8.81;100.00
71043;BME280;58696;52.134;5.500;2023-12-20T12:21:00;101334.59;;;8.81;100.00
71043;BME280;58696;52.134;5.500;2023-12-20T12:23:26;101321.28;;;8.77;100.00
71043;BME280;58696;52.134;5.500;2023-12-20T12:25:55;101329.78;;;8.78;100.00
71043;BME280;58696;52.134;5.500;2023-12-20T12:28:26;101320.31;;;8.78;100.00
71043;BME280;58696;52.134;5.500;2023-12-20T12:30:58;101313.75;;;8.84;100.00
71043;BME280;58696;52.134;5.500;2023-12-20T12:33:30;101309.94;;;8.88;100.00
71043;BME280;58696;52.134;5.500;2023-12-20T12:35:57;101303.03;;;8.88;100.00
71043;BME280;58696;52.134;5.500;2023-12-20T12:38:26;101297.56;;;8.91;100.00
71043;BME280;58696;52.134;5.500;2023-12-20T12:40:54;101292.00;;;8.88;100.00
71043;BME280;58696;52.134;5.500;2023-12-20T12:43:21;101292.97;;;8.87;100.00
71043;BME280;58696;52.134;5.500;2023-12-20T12:45:49;101300.78;;;8.85;100.00
71043;BME280;58696;52.134;5.500;2023-12-20T12:48:18;101277.56;;;8.87;100.00
71043;BME280;58696;52.134;5.500;2023-12-20T12:50:48;101278.50;;;8.86;100.00
71043;BME280;58696;52.134;5.500;2023-12-20T12:53:18;101274.53;;;8.83;100.00
71043;BME280;58696;52.134;5.500;2023-12-20T12:55:44;101270.19;;;8.84;100.00
71043;BME280;58696;52.134;5.500;2023-12-20T12:58:11;101272.91;;;8.82;100.00
71043;BME280;58696;52.134;5.500;2023-12-20T13:00:38;101262.00;;;8.80;100.00
71043;BME280;58696;52.134;5.500;2023-12-20T13:03:07;101257.22;;;8.77;100.00